DFOO

Bobo Dioulasso Airport

Bobo Dioulasso, Burkina Faso
METAR DFOO 101400Z 35006KT 320V090 CAVOK 32/05 Q1015
Observed Flight Rules
Dec-10 @ 14:00 UTC (an hour ago) Visual Flight Rules
Wind Visibility Clouds
350° at 6 knots 10,000+ meters
  • Clear skies
Temperatures Readings
Current 32°C / 90°F
Dewpoint 5°C / 41°F
Humidity 18%
Altimeter 29.97" Hg
Pressure 1015 hPa
Elevation 460
METAR DFOO 101400Z 35006KT 320V090 CAVOK 32/05 Q1015
Observed Flight Rules
Dec-10 @ 14:00 UTC
(an hour ago)
VFR
Wind Visibility
350° at 6 knots 10,000+ meters
Clouds
  • Clear skies
Temperature Dewpoint
32°C / 90°F 5°C / 41°F
Humidity Altimeter Pressure
18% 29.97" Hg 1015 hPa